createdAt,value
2022-12-28T00:01:45.448Z,1.29
2022-12-28T00:04:14.932Z,1.24
2022-12-28T00:06:41.373Z,1.16
2022-12-28T00:09:11.054Z,1.13
2022-12-28T00:11:38.202Z,1.09
2022-12-28T00:14:05.009Z,1.08
2022-12-28T00:16:34.390Z,1.06
2022-12-28T00:19:03.607Z,1.06
2022-12-28T00:21:31.222Z,1.04
2022-12-28T00:23:59.536Z,1.06
2022-12-28T00:26:28.840Z,1.06
2022-12-28T00:29:01.667Z,1.09
2022-12-28T00:31:31.141Z,1.13
2022-12-28T00:33:57.755Z,1.16
2022-12-28T00:36:24.468Z,1.19
2022-12-28T00:39:11.029Z,1.24
2022-12-28T00:41:37.534Z,1.28
2022-12-28T00:44:04.080Z,1.33
2022-12-28T00:46:30.539Z,1.36
2022-12-28T00:49:00.584Z,1.38
2022-12-28T00:51:26.995Z,1.40
2022-12-28T00:53:53.516Z,1.41
2022-12-28T00:56:22.202Z,1.40
2022-12-28T00:58:49.157Z,1.42
2022-12-28T01:01:21.840Z,1.42
2022-12-28T01:03:48.795Z,1.42
2022-12-28T01:06:17.696Z,1.41
2022-12-28T01:08:44.847Z,1.41
2022-12-28T01:11:16.183Z,1.37
2022-12-28T01:13:42.667Z,1.34
2022-12-28T01:16:14.027Z,1.29
2022-12-28T01:18:40.979Z,1.24
2022-12-28T01:21:13.101Z,1.17
2022-12-28T01:23:39.614Z,1.11
2022-12-28T01:26:06.605Z,1.05
2022-12-28T01:28:33.655Z,0.97
2022-12-28T01:31:09.413Z,0.93
2022-12-28T01:33:35.959Z,0.86
2022-12-28T01:36:09.869Z,0.79
2022-12-28T01:38:36.922Z,0.74
2022-12-28T01:41:07.484Z,0.71
2022-12-28T01:43:47.234Z,0.68
2022-12-28T01:46:20.477Z,0.61
2022-12-28T01:49:19.160Z,0.52
2022-12-28T01:52:00.579Z,0.37
2022-12-28T01:54:31.787Z,0.23
2022-12-28T01:56:58.744Z,0.10
2022-12-28T01:59:31.412Z,-0.02
2022-12-28T02:01:58.389Z,-0.13
2022-12-28T02:04:26.919Z,-0.22
2022-12-28T02:06:55.600Z,-0.31
2022-12-28T02:09:29.795Z,-0.43
2022-12-28T02:11:57.025Z,-0.55
2022-12-28T02:14:23.871Z,-0.66
2022-12-28T02:16:50.615Z,-0.74
2022-12-28T02:19:25.821Z,-0.86
2022-12-28T02:22:18.465Z,-0.94
2022-12-28T02:25:12.020Z,-1.02
2022-12-28T02:27:46.164Z,-1.05
2022-12-28T02:30:14.232Z,-1.09
2022-12-28T02:32:54.205Z,-1.15
2022-12-28T02:35:39.090Z,-1.20
2022-12-28T02:38:30.464Z,-1.31
2022-12-28T02:41:06.015Z,-1.40
2022-12-28T02:43:34.028Z,-1.46
2022-12-28T02:46:11.851Z,-1.53
2022-12-28T02:48:42.966Z,-1.56
2022-12-28T02:51:28.289Z,-1.62
2022-12-28T02:54:14.646Z,-1.63
2022-12-28T02:56:53.383Z,-1.62
2022-12-28T02:59:30.971Z,-1.63
2022-12-28T03:02:27.491Z,-1.66
2022-12-28T03:05:09.316Z,-1.72
2022-12-28T03:07:41.905Z,-1.70
2022-12-28T03:10:14.384Z,-1.69
2022-12-28T03:13:05.328Z,-1.74
2022-12-28T03:15:37.319Z,-1.77
2022-12-28T03:18:15.072Z,-1.75
2022-12-28T03:20:41.566Z,-1.75
2022-12-28T03:23:11.324Z,-1.73
2022-12-28T03:25:42.177Z,-1.72
2022-12-28T03:28:13.390Z,-1.76
2022-12-28T03:30:42.691Z,-1.80
2022-12-28T03:33:11.415Z,-1.85
2022-12-28T03:35:42.763Z,-1.91
2022-12-28T03:38:18.826Z,-1.95
2022-12-28T03:40:51.675Z,-1.98
2022-12-28T03:43:25.608Z,-2.01
2022-12-28T03:46:00.505Z,-2.02
2022-12-28T03:48:27.446Z,-2.02
2022-12-28T03:50:55.085Z,-2.02
2022-12-28T03:53:29.020Z,-2.02
2022-12-28T03:56:10.806Z,-2.02
2022-12-28T03:58:37.345Z,-2.06
2022-12-28T04:01:04.629Z,-2.13
2022-12-28T04:03:31.305Z,-2.20
2022-12-28T04:05:59.839Z,-2.29
2022-12-28T04:08:27.192Z,-2.37
2022-12-28T04:10:54.129Z,-2.44
2022-12-28T04:13:20.686Z,-2.49
2022-12-28T04:15:58.333Z,-2.54
2022-12-28T04:18:25.159Z,-2.59
2022-12-28T04:20:51.889Z,-2.62
2022-12-28T04:23:18.538Z,-2.66
2022-12-28T04:25:45.270Z,-2.67
2022-12-28T04:28:11.809Z,-2.68
2022-12-28T04:30:38.404Z,-2.68
2022-12-28T04:33:04.993Z,-2.65
2022-12-28T04:35:32.555Z,-2.60
2022-12-28T04:37:59.100Z,-2.58
2022-12-28T04:40:25.578Z,-2.54
2022-12-28T04:42:52.075Z,-2.54
2022-12-28T04:45:22.150Z,-2.58
2022-12-28T04:47:48.905Z,-2.59
2022-12-28T04:50:15.487Z,-2.57
2022-12-28T04:52:43.248Z,-2.57
2022-12-28T04:55:32.470Z,-2.56
2022-12-28T04:57:56.407Z,-2.57
2022-12-28T05:00:23.211Z,-2.58
2022-12-28T05:02:49.908Z,-2.57
2022-12-28T05:05:16.656Z,-2.58
2022-12-28T05:07:43.181Z,-2.57
2022-12-28T05:10:09.814Z,-2.56
2022-12-28T05:12:36.267Z,-2.58
2022-12-28T05:15:02.794Z,-2.59
2022-12-28T05:17:29.328Z,-2.62
2022-12-28T05:19:55.769Z,-2.64
2022-12-28T05:22:22.293Z,-2.64
2022-12-28T05:24:48.851Z,-2.68
2022-12-28T05:27:15.286Z,-2.73
2022-12-28T05:29:41.835Z,-2.79
2022-12-28T05:32:08.701Z,-2.83
2022-12-28T05:34:35.105Z,-2.84
2022-12-28T05:37:01.510Z,-2.81
2022-12-28T05:39:28.096Z,-2.79
2022-12-28T05:41:54.567Z,-2.79
2022-12-28T05:44:21.043Z,-2.76
2022-12-28T05:46:47.569Z,-2.69
2022-12-28T05:49:14.157Z,-2.63
2022-12-28T05:51:40.591Z,-2.58
2022-12-28T05:54:07.004Z,-2.55
2022-12-28T05:56:33.940Z,-2.57
2022-12-28T05:59:06.383Z,-2.59
2022-12-28T06:01:36.632Z,-2.63
2022-12-28T06:04:06.036Z,-2.66
2022-12-28T06:06:34.218Z,-2.65
2022-12-28T06:09:00.827Z,-2.67
2022-12-28T06:11:29.299Z,-2.67
2022-12-28T06:13:56.297Z,-2.70
2022-12-28T06:16:28.917Z,-2.73
2022-12-28T06:18:56.013Z,-2.80
2022-12-28T06:21:31.218Z,-2.80
2022-12-28T06:23:59.391Z,-2.84
2022-12-28T06:26:28.485Z,-2.90
2022-12-28T06:28:55.253Z,-2.96
2022-12-28T06:31:27.261Z,-3.02
2022-12-28T06:33:55.507Z,-3.05
2022-12-28T06:36:24.788Z,-3.05
2022-12-28T06:38:53.737Z,-3.03
2022-12-28T06:41:22.274Z,-3.04
2022-12-28T06:43:49.835Z,-3.07
2022-12-28T06:46:18.109Z,-3.09
2022-12-28T06:48:44.671Z,-3.07
2022-12-28T06:51:24.206Z,-3.04
2022-12-28T06:53:52.218Z,-2.98
2022-12-28T06:56:24.977Z,-2.89
2022-12-28T06:58:57.015Z,-2.74
2022-12-28T07:01:40.638Z,-2.51
2022-12-28T07:04:09.774Z,-2.41
2022-12-28T07:06:44.131Z,-2.40
2022-12-28T07:09:14.194Z,-2.34
2022-12-28T07:11:41.273Z,-2.23
2022-12-28T07:14:08.107Z,-2.12
2022-12-28T07:19:01.036Z,-1.93
2022-12-28T07:21:32.710Z,-1.83
2022-12-28T07:23:59.430Z,-1.72
2022-12-28T07:26:28.523Z,-1.65
2022-12-28T07:28:57.248Z,-1.56
2022-12-28T07:31:27.807Z,-1.47
2022-12-28T07:33:58.278Z,-1.35
2022-12-28T07:36:26.767Z,-1.26
2022-12-28T07:38:53.591Z,-1.20
2022-12-28T07:41:22.890Z,-1.15
2022-12-28T07:43:50.175Z,-1.11
2022-12-28T07:46:21.140Z,-1.10
2022-12-28T07:48:48.480Z,-1.05
2022-12-28T07:51:36.681Z,-0.99
2022-12-28T07:54:04.618Z,-0.94
2022-12-28T07:59:01.759Z,-0.77
2022-12-28T08:01:30.411Z,-0.70
2022-12-28T08:04:00.747Z,-0.60
2022-12-28T08:06:28.477Z,-0.45
2022-12-28T08:08:58.535Z,-0.28
2022-12-28T08:11:27.937Z,-0.10
2022-12-28T08:13:56.069Z,0.04
2022-12-28T08:16:25.046Z,0.15
2022-12-28T08:18:51.704Z,0.28
2022-12-28T08:21:21.413Z,0.41
2022-12-28T08:23:48.833Z,0.55
2022-12-28T08:26:29.819Z,0.64
2022-12-28T08:28:59.048Z,0.75
2022-12-28T08:31:28.225Z,0.82
2022-12-28T08:33:56.338Z,0.89
2022-12-28T08:36:23.157Z,0.98
2022-12-28T08:38:49.720Z,1.14
2022-12-28T08:41:19.327Z,1.30
2022-12-28T08:43:46.289Z,1.47
2022-12-28T08:46:16.068Z,1.62
2022-12-28T08:48:43.784Z,1.80
2022-12-28T08:51:12.886Z,1.96
2022-12-28T08:53:40.523Z,2.12
2022-12-28T08:56:20.112Z,2.23
2022-12-28T08:58:47.588Z,2.36
2022-12-28T09:01:16.580Z,2.52
2022-12-28T09:03:45.479Z,2.72
2022-12-28T09:06:14.739Z,2.84
2022-12-28T09:08:42.583Z,2.91
2022-12-28T09:11:13.760Z,3.04
2022-12-28T09:13:40.609Z,3.29
2022-12-28T09:16:13.229Z,3.48
2022-12-28T09:18:41.290Z,3.60
2022-12-28T09:21:13.957Z,3.72
2022-12-28T09:23:41.105Z,3.81
2022-12-28T09:26:10.609Z,3.89
2022-12-28T09:28:38.087Z,4.17
2022-12-28T09:31:06.210Z,4.52
2022-12-28T09:33:33.211Z,4.78
2022-12-28T09:35:59.625Z,5.20
2022-12-28T09:38:26.203Z,5.58
2022-12-28T09:40:52.744Z,5.61
2022-12-28T09:43:19.997Z,5.55
2022-12-28T09:45:47.970Z,5.45
2022-12-28T09:48:19.019Z,5.57
2022-12-28T09:50:47.571Z,5.91
2022-12-28T09:53:23.230Z,6.31
2022-12-28T09:56:03.009Z,6.69
2022-12-28T09:58:32.320Z,6.82
2022-12-28T10:01:02.247Z,6.90
2022-12-28T10:03:37.961Z,6.89
2022-12-28T10:06:12.191Z,6.95
2022-12-28T10:08:51.251Z,6.97
2022-12-28T10:11:22.554Z,7.01
2022-12-28T10:13:55.130Z,7.06
2022-12-28T10:16:25.021Z,7.04
2022-12-28T10:18:52.137Z,7.04
2022-12-28T10:21:25.453Z,7.01
2022-12-28T10:24:29.618Z,6.97
2022-12-28T10:26:46.494Z,6.98
2022-12-28T10:29:19.399Z,7.12
2022-12-28T10:32:00.975Z,7.20
2022-12-28T10:34:33.498Z,7.18
2022-12-28T10:37:15.384Z,7.16
2022-12-28T10:39:58.003Z,7.17
2022-12-28T10:42:40.999Z,7.11
2022-12-28T10:45:18.001Z,6.99
2022-12-28T10:47:50.329Z,6.90
2022-12-28T10:50:48.154Z,6.84
2022-12-28T10:53:17.636Z,6.85
2022-12-28T10:55:44.640Z,6.84
2022-12-28T10:58:33.281Z,6.83
2022-12-28T11:01:11.346Z,6.88
2022-12-28T11:03:43.994Z,6.99
2022-12-28T11:06:26.700Z,7.01
2022-12-28T11:09:21.494Z,6.99
2022-12-28T11:11:49.529Z,6.94
2022-12-28T11:14:34.102Z,6.84
2022-12-28T11:17:20.541Z,6.76
2022-12-28T11:19:49.424Z,6.67
2022-12-28T11:22:22.603Z,6.58
2022-12-28T11:24:49.153Z,6.51
2022-12-28T11:27:19.684Z,6.42
2022-12-28T11:29:51.192Z,6.36
2022-12-28T11:32:39.826Z,6.28
2022-12-28T11:35:06.833Z,6.18
2022-12-28T11:37:33.272Z,6.13
2022-12-28T11:39:59.733Z,6.09
2022-12-28T11:42:40.699Z,6.06
2022-12-28T11:45:14.952Z,6.05
2022-12-28T11:47:41.538Z,6.05
2022-12-28T11:50:32.888Z,6.00
2022-12-28T11:53:00.435Z,6.01
2022-12-28T11:55:35.795Z,6.03
2022-12-28T11:58:33.457Z,6.03
2022-12-28T12:01:00.268Z,6.06
2022-12-28T12:03:58.197Z,6.09
2022-12-28T12:06:43.166Z,6.08
2022-12-28T12:09:33.061Z,6.02
2022-12-28T12:12:21.210Z,5.96
2022-12-28T12:14:51.536Z,5.90
2022-12-28T12:17:41.190Z,5.84
2022-12-28T12:20:44.529Z,5.76
2022-12-28T12:24:05.311Z,5.71
2022-12-28T12:26:49.182Z,5.65
2022-12-28T12:29:20.979Z,5.64
2022-12-28T12:31:57.394Z,5.63
2022-12-28T12:34:36.460Z,5.63
2022-12-28T12:37:27.093Z,5.62
2022-12-28T12:40:21.374Z,5.63
2022-12-28T12:43:09.698Z,5.64
2022-12-28T12:45:56.134Z,5.66
2022-12-28T12:48:41.409Z,5.70
2022-12-28T12:51:37.008Z,5.75
2022-12-28T12:54:06.215Z,5.82
2022-12-28T12:56:52.017Z,5.88
2022-12-28T12:59:27.258Z,6.00
2022-12-28T13:02:12.347Z,6.14
2022-12-28T13:04:43.739Z,6.26
2022-12-28T13:07:17.897Z,6.36
2022-12-28T13:09:44.642Z,6.45
2022-12-28T13:12:17.283Z,6.53
2022-12-28T13:14:45.800Z,6.63
2022-12-28T13:17:19.298Z,6.75
2022-12-28T13:19:45.880Z,6.84
2022-12-28T13:22:33.184Z,6.89
2022-12-28T13:25:00.147Z,6.93
2022-12-28T13:27:34.553Z,6.95
2022-12-28T13:30:01.929Z,6.97
2022-12-28T13:32:38.239Z,6.99
2022-12-28T13:35:21.942Z,7.02
2022-12-28T13:38:24.005Z,7.08
2022-12-28T13:40:53.434Z,7.12
2022-12-28T13:43:25.699Z,7.10
2022-12-28T13:45:57.613Z,7.10
2022-12-28T13:48:25.738Z,7.11
2022-12-28T13:50:53.277Z,7.10
2022-12-28T13:53:27.860Z,7.06
2022-12-28T13:56:00.753Z,6.97
2022-12-28T13:58:29.726Z,6.83
2022-12-28T14:00:58.971Z,6.71
2022-12-28T14:03:26.468Z,6.58
2022-12-28T14:05:57.778Z,6.46
2022-12-28T14:08:24.151Z,6.36
2022-12-28T14:10:51.718Z,6.26
2022-12-28T14:13:19.735Z,6.17
2022-12-28T14:15:47.528Z,6.09
2022-12-28T14:18:17.215Z,5.98
2022-12-28T14:20:54.101Z,5.89
2022-12-28T14:23:26.434Z,5.81
2022-12-28T14:25:55.356Z,5.71
2022-12-28T14:28:31.512Z,5.64
2022-12-28T14:30:58.227Z,5.56
2022-12-28T14:33:27.786Z,5.50
2022-12-28T14:35:59.270Z,5.44
2022-12-28T14:38:34.369Z,5.38
2022-12-28T14:41:02.464Z,5.33
2022-12-28T14:43:32.451Z,5.28
2022-12-28T14:46:18.016Z,5.22
2022-12-28T14:48:44.935Z,5.17
2022-12-28T14:51:24.359Z,5.11
2022-12-28T14:54:15.971Z,5.04
2022-12-28T14:56:46.163Z,4.96
2022-12-28T14:59:22.288Z,4.93
2022-12-28T15:01:48.958Z,4.91
2022-12-28T15:04:28.287Z,4.91
2022-12-28T15:06:54.873Z,4.91
2022-12-28T15:09:21.874Z,4.89
2022-12-28T15:11:48.432Z,4.88
2022-12-28T15:14:15.131Z,4.87
2022-12-28T15:16:41.577Z,4.84
2022-12-28T15:19:08.259Z,4.82
2022-12-28T15:21:34.890Z,4.79
2022-12-28T15:24:01.397Z,4.76
2022-12-28T15:26:27.888Z,4.71
2022-12-28T15:28:54.374Z,4.67
2022-12-28T15:31:21.915Z,4.58
2022-12-28T15:33:49.411Z,4.49
2022-12-28T15:36:22.287Z,4.40
2022-12-28T15:38:49.146Z,4.30
2022-12-28T15:41:16.653Z,4.19
2022-12-28T15:43:43.255Z,4.08
2022-12-28T15:46:09.729Z,3.96
2022-12-28T15:48:36.324Z,3.86
2022-12-28T15:51:02.809Z,3.75
2022-12-28T15:53:29.208Z,3.64
2022-12-28T15:56:01.797Z,3.51
2022-12-28T15:58:29.451Z,3.39
2022-12-28T16:00:55.928Z,3.28
2022-12-28T16:03:22.746Z,3.15
2022-12-28T16:05:49.251Z,3.03
2022-12-28T16:08:15.679Z,2.92
2022-12-28T16:10:42.156Z,2.85
2022-12-28T16:13:08.703Z,2.77
2022-12-28T16:15:35.234Z,2.68
2022-12-28T16:18:01.772Z,2.61
2022-12-28T16:20:29.666Z,2.54
2022-12-28T16:22:56.039Z,2.47
2022-12-28T16:25:22.460Z,2.39
2022-12-28T16:27:48.932Z,2.32
2022-12-28T16:30:15.615Z,2.27
2022-12-28T16:32:42.145Z,2.19
2022-12-28T16:35:09.032Z,2.10
2022-12-28T16:37:35.540Z,1.99
2022-12-28T16:40:02.074Z,1.87
2022-12-28T16:42:28.611Z,1.76
2022-12-28T16:44:55.138Z,1.67
2022-12-28T16:47:21.679Z,1.63
2022-12-28T16:49:48.215Z,1.59
2022-12-28T16:52:14.645Z,1.55
2022-12-28T16:54:41.079Z,1.53
2022-12-28T16:57:07.537Z,1.53
2022-12-28T16:59:34.016Z,1.55
2022-12-28T17:02:00.553Z,1.55
2022-12-28T17:04:27.137Z,1.57
2022-12-28T17:06:54.210Z,1.57
2022-12-28T17:09:21.269Z,1.56
2022-12-28T17:11:49.768Z,1.58
2022-12-28T17:14:29.201Z,1.57
2022-12-28T17:17:02.898Z,1.58
2022-12-28T17:19:29.440Z,1.62
2022-12-28T17:21:55.884Z,1.68
2022-12-28T17:24:22.398Z,1.71
2022-12-28T17:26:48.817Z,1.74
2022-12-28T17:29:15.381Z,1.85
2022-12-28T17:31:43.727Z,1.90
2022-12-28T17:34:11.020Z,1.89
2022-12-28T17:36:37.507Z,1.85
2022-12-28T17:39:04.608Z,1.81
2022-12-28T17:41:31.358Z,1.79
2022-12-28T17:43:59.845Z,1.75
2022-12-28T17:46:29.009Z,1.68
2022-12-28T17:48:57.464Z,1.61
2022-12-28T17:51:24.695Z,1.54
2022-12-28T17:53:53.399Z,1.45
2022-12-28T17:56:20.036Z,1.37
2022-12-28T17:58:46.439Z,1.28
2022-12-28T18:01:13.430Z,1.18
2022-12-28T18:03:40.188Z,1.06
2022-12-28T18:06:07.500Z,0.95
2022-12-28T18:08:34.443Z,0.87
2022-12-28T18:11:00.970Z,0.80
2022-12-28T18:13:27.597Z,0.73
2022-12-28T18:15:54.189Z,0.68
2022-12-28T18:18:20.708Z,0.63
2022-12-28T18:20:59.819Z,0.55
2022-12-28T18:23:26.883Z,0.44
2022-12-28T18:26:00.413Z,0.36
2022-12-28T18:28:26.854Z,0.31
2022-12-28T18:30:57.886Z,0.27
2022-12-28T18:33:28.320Z,0.19
2022-12-28T18:35:54.859Z,0.10
2022-12-28T18:38:21.405Z,0.05
2022-12-28T18:40:53.064Z,0.07
2022-12-28T18:43:21.070Z,0.05
2022-12-28T18:45:58.587Z,0.06
2022-12-28T18:48:26.709Z,0.08
2022-12-28T18:51:23.559Z,0.05
2022-12-28T18:53:50.036Z,-0.00
2022-12-28T18:56:19.323Z,-0.04
2022-12-28T18:58:54.027Z,-0.09
2022-12-28T19:02:04.638Z,-0.17
2022-12-28T19:04:10.693Z,-0.29
2022-12-28T19:06:38.047Z,-0.39
2022-12-28T19:09:06.153Z,-0.48
2022-12-28T19:11:33.328Z,-0.55
2022-12-28T19:14:03.216Z,-0.50
2022-12-28T19:16:31.796Z,-0.49
2022-12-28T19:18:59.363Z,-0.53
2022-12-28T19:21:30.204Z,-0.57
2022-12-28T19:23:59.366Z,-0.60
2022-12-28T19:26:26.083Z,-0.57
2022-12-28T19:28:53.177Z,-0.54
2022-12-28T19:31:19.899Z,-0.55
2022-12-28T19:33:46.882Z,-0.54
2022-12-28T19:36:13.423Z,-0.54
2022-12-28T19:38:40.063Z,-0.54
2022-12-28T19:41:09.283Z,-0.57
2022-12-28T19:43:36.244Z,-0.58
2022-12-28T19:46:13.596Z,-0.63
2022-12-28T19:48:40.466Z,-0.69
2022-12-28T19:51:07.419Z,-0.76
2022-12-28T19:53:34.049Z,-0.82
2022-12-28T19:56:13.802Z,-0.85
2022-12-28T19:58:43.841Z,-0.88
2022-12-28T20:01:16.654Z,-0.90
2022-12-28T20:03:44.140Z,-0.89
2022-12-28T20:06:19.341Z,-0.87
2022-12-28T20:08:50.683Z,-0.86
2022-12-28T20:11:18.780Z,-0.88
2022-12-28T20:13:50.815Z,-0.94
2022-12-28T20:16:17.286Z,-1.03
2022-12-28T20:18:52.204Z,-1.08
2022-12-28T20:21:20.749Z,-1.15
2022-12-28T20:23:52.200Z,-1.25
2022-12-28T20:26:24.189Z,-1.35
2022-12-28T20:28:50.849Z,-1.44
2022-12-28T20:31:19.984Z,-1.53
2022-12-28T20:33:47.222Z,-1.61
2022-12-28T20:36:19.341Z,-1.66
2022-12-28T20:38:47.033Z,-1.72
2022-12-28T20:41:16.553Z,-1.74
2022-12-28T20:43:43.185Z,-1.77
2022-12-28T20:46:12.750Z,-1.78
2022-12-28T20:48:39.237Z,-1.73
2022-12-28T20:51:05.782Z,-1.75
2022-12-28T20:53:32.310Z,-1.74
2022-12-28T20:56:09.804Z,-1.72
2022-12-28T20:58:37.619Z,-1.70
2022-12-28T21:01:05.807Z,-1.73
2022-12-28T21:03:32.647Z,-1.75
2022-12-28T21:05:59.340Z,-1.80
2022-12-28T21:08:30.697Z,-1.82
2022-12-28T21:10:58.015Z,-1.82
2022-12-28T21:13:24.554Z,-1.83
2022-12-28T21:15:51.129Z,-1.79
2022-12-28T21:18:17.563Z,-1.75
2022-12-28T21:20:45.747Z,-1.77
2022-12-28T21:23:12.274Z,-1.80
2022-12-28T21:25:38.789Z,-1.84
2022-12-28T21:28:05.930Z,-1.88
2022-12-28T21:30:32.482Z,-1.89
2022-12-28T21:32:59.146Z,-1.92
2022-12-28T21:35:30.447Z,-1.97
2022-12-28T21:38:00.245Z,-2.02
2022-12-28T21:40:26.779Z,-2.07
2022-12-28T21:42:53.183Z,-2.10
2022-12-28T21:45:19.625Z,-2.13
2022-12-28T21:47:46.169Z,-2.17
2022-12-28T21:50:12.589Z,-2.17
2022-12-28T21:52:39.024Z,-2.19
2022-12-28T21:55:05.961Z,-2.20
2022-12-28T21:57:32.362Z,-2.17
2022-12-28T22:00:00.276Z,-2.15
2022-12-28T22:02:28.632Z,-2.14
2022-12-28T22:05:01.801Z,-2.17
2022-12-28T22:07:28.933Z,-2.20
2022-12-28T22:09:57.747Z,-2.22
2022-12-28T22:12:25.909Z,-2.27
2022-12-28T22:14:52.371Z,-2.32
2022-12-28T22:17:18.885Z,-2.35
2022-12-28T22:19:45.325Z,-2.36
2022-12-28T22:22:11.765Z,-2.34
2022-12-28T22:24:38.210Z,-2.31
2022-12-28T22:27:04.638Z,-2.31
2022-12-28T22:29:31.175Z,-2.30
2022-12-28T22:31:57.603Z,-2.32
2022-12-28T22:34:24.028Z,-2.34
2022-12-28T22:36:50.602Z,-2.35
2022-12-28T22:39:17.132Z,-2.37
2022-12-28T22:41:43.505Z,-2.41
2022-12-28T22:44:10.411Z,-2.37
2022-12-28T22:46:36.913Z,-2.35
2022-12-28T22:49:03.499Z,-2.33
2022-12-28T22:51:29.944Z,-2.34
2022-12-28T22:53:56.441Z,-2.39
2022-12-28T22:56:22.864Z,-2.47
2022-12-28T22:58:49.326Z,-2.54
2022-12-28T23:01:19.103Z,-2.61
2022-12-28T23:03:47.869Z,-2.65
2022-12-28T23:06:17.505Z,-2.68
2022-12-28T23:08:44.299Z,-2.75
2022-12-28T23:11:13.818Z,-2.79
2022-12-28T23:13:40.353Z,-2.78
2022-12-28T23:16:06.909Z,-2.74
2022-12-28T23:18:35.036Z,-2.71
2022-12-28T23:21:01.618Z,-2.68
2022-12-28T23:23:28.047Z,-2.63
2022-12-28T23:25:54.500Z,-2.61
2022-12-28T23:28:21.035Z,-2.62
2022-12-28T23:30:49.899Z,-2.65
2022-12-28T23:33:18.003Z,-2.69
2022-12-28T23:35:45.360Z,-2.72
2022-12-28T23:38:12.121Z,-2.77
2022-12-28T23:40:40.281Z,-2.79
2022-12-28T23:43:07.352Z,-2.77
2022-12-28T23:45:35.010Z,-2.73
2022-12-28T23:48:01.521Z,-2.70
2022-12-28T23:50:28.107Z,-2.68
2022-12-28T23:52:54.521Z,-2.69
2022-12-28T23:55:20.936Z,-2.70
2022-12-28T23:57:47.397Z,-2.68
